createdAt,value
2022-11-18T00:00:17.283Z,0.00
2022-11-18T00:01:17.305Z,0.00
2022-11-18T00:02:17.356Z,0.00
2022-11-18T00:03:17.360Z,0.00
2022-11-18T00:04:17.395Z,0.00
2022-11-18T00:05:17.430Z,0.00
2022-11-18T00:06:17.456Z,0.00
2022-11-18T00:07:17.506Z,0.00
2022-11-18T00:08:17.503Z,0.00
2022-11-18T00:09:17.893Z,0.00
2022-11-18T00:10:17.560Z,0.00
2022-11-18T00:11:17.580Z,0.00
2022-11-18T00:12:17.615Z,0.00
2022-11-18T00:13:17.637Z,0.00
2022-11-18T00:14:17.671Z,0.00
2022-11-18T00:15:17.688Z,0.00
2022-11-18T00:16:17.724Z,0.00
2022-11-18T00:17:17.743Z,0.00
2022-11-18T00:18:17.780Z,0.00
2022-11-18T00:19:17.982Z,0.00
2022-11-18T00:20:17.836Z,0.00
2022-11-18T00:21:17.857Z,0.00
2022-11-18T00:22:17.889Z,0.00
2022-11-18T00:23:17.909Z,0.00
2022-11-18T00:24:17.945Z,0.00
2022-11-18T00:25:17.973Z,0.00
2022-11-18T00:26:18.000Z,0.00
2022-11-18T00:27:18.018Z,0.00
2022-11-18T00:28:18.057Z,0.00
2022-11-18T00:29:18.515Z,0.00
2022-11-18T00:30:18.112Z,0.00
2022-11-18T00:31:18.130Z,0.00
2022-11-18T00:32:18.165Z,0.00
2022-11-18T00:33:18.184Z,0.00
2022-11-18T00:34:18.220Z,0.00
2022-11-18T00:35:18.240Z,0.00
2022-11-18T00:36:18.275Z,0.00
2022-11-18T00:37:18.295Z,0.00
2022-11-18T00:38:18.329Z,0.00
2022-11-18T00:39:18.792Z,0.00
2022-11-18T00:40:18.396Z,0.00
2022-11-18T00:41:18.415Z,0.00
2022-11-18T00:42:18.441Z,0.00
2022-11-18T00:43:18.460Z,0.00
2022-11-18T00:44:18.496Z,0.00
2022-11-18T00:45:18.524Z,0.00
2022-11-18T00:46:18.554Z,0.00
2022-11-18T00:47:18.571Z,0.00
2022-11-18T00:48:18.607Z,0.00
2022-11-18T00:49:18.925Z,0.00
2022-11-18T00:50:18.657Z,0.00
2022-11-18T00:51:18.678Z,0.00
2022-11-18T00:52:18.713Z,0.00
2022-11-18T00:53:18.733Z,0.00
2022-11-18T00:54:18.769Z,0.00
2022-11-18T00:55:18.803Z,0.00
2022-11-18T00:56:18.825Z,0.00
2022-11-18T00:57:18.844Z,0.00
2022-11-18T00:58:18.879Z,0.00
2022-11-18T00:59:19.187Z,0.00
2022-11-18T01:00:18.936Z,0.00
2022-11-18T01:01:19.030Z,0.00
2022-11-18T01:02:18.988Z,0.00
2022-11-18T01:03:19.009Z,0.00
2022-11-18T01:04:19.043Z,0.00
2022-11-18T01:05:19.062Z,0.00
2022-11-18T01:06:19.097Z,0.00
2022-11-18T01:07:19.172Z,0.00
2022-11-18T01:08:19.153Z,0.00
2022-11-18T01:09:19.476Z,0.00
2022-11-18T01:10:19.207Z,0.00
2022-11-18T01:11:19.227Z,0.00
2022-11-18T01:12:19.262Z,0.00
2022-11-18T01:13:19.301Z,0.00
2022-11-18T01:14:19.317Z,0.00
2022-11-18T01:15:19.342Z,0.00
2022-11-18T01:16:19.371Z,0.00
2022-11-18T01:17:19.397Z,0.00
2022-11-18T01:18:19.427Z,0.00
2022-11-18T01:19:19.775Z,0.00
2022-11-18T01:20:19.485Z,0.00
2022-11-18T01:21:19.505Z,0.00
2022-11-18T01:22:19.537Z,0.00
2022-11-18T01:23:19.557Z,0.00
2022-11-18T01:24:19.593Z,0.00
2022-11-18T01:25:19.610Z,0.00
2022-11-18T01:26:19.649Z,0.00
2022-11-18T01:27:19.667Z,0.00
2022-11-18T01:28:23.608Z,0.00
2022-11-18T01:29:19.998Z,0.00
2022-11-18T01:30:19.756Z,0.00
2022-11-18T01:31:19.779Z,0.00
2022-11-18T01:32:25.012Z,0.00
2022-11-18T01:33:20.039Z,0.00
2022-11-18T01:34:19.865Z,0.00
2022-11-18T01:35:19.887Z,0.00
2022-11-18T01:36:19.920Z,0.00
2022-11-18T01:37:19.938Z,0.00
2022-11-18T01:38:19.974Z,0.00
2022-11-18T01:39:20.048Z,0.00
2022-11-18T01:40:20.027Z,0.00
2022-11-18T01:41:20.053Z,0.00
2022-11-18T01:42:20.083Z,0.00
2022-11-18T01:43:20.104Z,0.00
2022-11-18T01:44:20.138Z,0.00
2022-11-18T01:45:20.165Z,0.00
2022-11-18T01:46:20.195Z,0.00
2022-11-18T01:47:20.211Z,0.00
2022-11-18T01:48:20.246Z,0.00
2022-11-18T01:49:20.415Z,0.00
2022-11-18T01:50:20.303Z,0.00
2022-11-18T01:51:20.320Z,0.00
2022-11-18T01:52:20.354Z,0.00
2022-11-18T01:53:20.376Z,0.00
2022-11-18T01:54:20.411Z,0.00
2022-11-18T01:55:20.431Z,0.00
2022-11-18T01:56:20.465Z,0.00
2022-11-18T01:57:20.490Z,0.00
2022-11-18T01:58:20.518Z,0.00
2022-11-18T01:59:20.546Z,0.00
2022-11-18T02:00:20.578Z,0.00
2022-11-18T02:01:20.647Z,0.00
2022-11-18T02:02:20.628Z,0.00
2022-11-18T02:03:20.647Z,0.00
2022-11-18T02:04:20.685Z,0.00
2022-11-18T02:05:20.701Z,0.00
2022-11-18T02:06:20.734Z,0.00
2022-11-18T02:07:20.800Z,0.00
2022-11-18T02:08:27.982Z,0.00
2022-11-18T02:10:25.873Z,0.00
2022-11-18T02:11:25.855Z,0.00
2022-11-18T02:13:29.928Z,0.00
2022-11-18T02:14:29.911Z,0.00
2022-11-18T02:16:33.986Z,0.00
2022-11-18T02:17:33.993Z,0.00
2022-11-18T02:19:38.050Z,0.00
2022-11-18T02:20:38.026Z,0.00
2022-11-18T02:22:42.059Z,0.00
2022-11-18T02:23:42.089Z,0.00
2022-11-18T02:25:46.154Z,0.00
2022-11-18T02:26:46.138Z,0.00
2022-11-18T02:28:50.208Z,0.00
2022-11-18T02:29:50.204Z,0.00
2022-11-18T02:30:50.235Z,0.00
2022-11-18T02:31:50.272Z,0.00
2022-11-18T02:32:50.280Z,0.00
2022-11-18T02:33:50.313Z,0.00
2022-11-18T02:36:33.090Z,0.00
2022-11-18T02:37:33.109Z,0.00
2022-11-18T02:39:37.185Z,0.00
2022-11-18T02:40:37.170Z,0.00
2022-11-18T02:42:41.207Z,0.00
2022-11-18T02:43:41.228Z,0.00
2022-11-18T02:45:45.268Z,0.00
2022-11-18T02:46:45.289Z,0.00
2022-11-18T02:48:49.320Z,0.00
2022-11-18T02:49:49.344Z,0.00
2022-11-18T02:51:53.377Z,0.00
2022-11-18T02:52:53.397Z,0.00
2022-11-18T02:54:57.466Z,0.00
2022-11-18T02:55:57.457Z,0.00
2022-11-18T02:58:01.524Z,0.00
2022-11-18T02:59:01.518Z,0.00
2022-11-18T03:01:05.567Z,0.00
2022-11-18T03:02:05.582Z,0.00
2022-11-18T03:04:09.643Z,0.00
2022-11-18T03:05:09.635Z,0.00
2022-11-18T03:07:02.748Z,0.00
2022-11-18T03:08:02.611Z,0.00
2022-11-18T03:10:06.676Z,0.00
2022-11-18T03:11:06.672Z,0.00
2022-11-18T03:13:10.731Z,0.00
2022-11-18T03:14:10.721Z,0.00
2022-11-18T03:16:14.755Z,0.00
2022-11-18T03:17:14.781Z,0.00
2022-11-18T03:19:19.030Z,0.00
2022-11-18T03:20:18.844Z,0.00
2022-11-18T03:22:22.870Z,0.00
2022-11-18T03:23:22.901Z,0.00
2022-11-18T03:25:26.954Z,0.00
2022-11-18T03:26:26.951Z,0.00
2022-11-18T03:28:31.014Z,0.00
2022-11-18T03:29:31.008Z,0.00
2022-11-18T03:31:35.049Z,0.00
2022-11-18T03:32:35.065Z,0.00
2022-11-18T03:34:39.098Z,0.00
2022-11-18T03:35:39.123Z,0.00
2022-11-18T03:37:32.089Z,0.00
2022-11-18T03:38:32.121Z,0.00
2022-11-18T03:40:36.142Z,0.00
2022-11-18T03:41:36.159Z,0.00
2022-11-18T03:43:40.223Z,0.00
2022-11-18T03:44:40.221Z,0.00
2022-11-18T03:46:44.258Z,0.00
2022-11-18T03:47:44.274Z,0.00
2022-11-18T03:49:48.308Z,0.00
2022-11-18T03:50:48.333Z,0.00
2022-11-18T03:52:52.369Z,0.00
2022-11-18T03:53:52.386Z,0.00
2022-11-18T03:55:56.420Z,0.00
2022-11-18T03:56:56.450Z,0.00
2022-11-18T03:59:00.508Z,0.00
2022-11-18T04:00:00.499Z,0.00
2022-11-18T04:02:04.626Z,0.00
2022-11-18T04:03:04.556Z,0.00
2022-11-18T04:05:08.617Z,0.00
2022-11-18T04:06:08.612Z,0.00
2022-11-18T04:08:12.648Z,0.00
2022-11-18T04:09:12.668Z,0.00
2022-11-18T04:11:16.702Z,0.00
2022-11-18T04:12:16.724Z,0.00
2022-11-18T04:14:20.758Z,0.00
2022-11-18T04:15:20.777Z,0.00
2022-11-18T04:17:13.768Z,0.00
2022-11-18T04:18:13.753Z,0.00
2022-11-18T04:20:17.789Z,0.00
2022-11-18T04:21:17.806Z,0.00
2022-11-18T04:23:21.977Z,0.00
2022-11-18T04:24:21.865Z,0.00
2022-11-18T04:26:25.926Z,0.00
2022-11-18T04:27:25.924Z,0.00
2022-11-18T04:29:29.953Z,0.00
2022-11-18T04:30:29.976Z,0.00
2022-11-18T04:32:34.022Z,0.00
2022-11-18T04:33:34.039Z,0.00
2022-11-18T04:35:38.100Z,0.00
2022-11-18T04:36:38.088Z,0.00
2022-11-18T04:38:42.186Z,0.00
2022-11-18T04:39:42.145Z,0.00
2022-11-18T04:41:46.178Z,0.00
2022-11-18T04:42:46.201Z,0.00
2022-11-18T04:44:50.239Z,0.00
2022-11-18T04:45:50.255Z,0.00
2022-11-18T04:47:58.853Z,0.00
2022-11-18T04:48:54.312Z,0.00
2022-11-18T04:50:58.345Z,0.00
2022-11-18T04:51:58.367Z,0.00
2022-11-18T04:54:02.404Z,0.00
2022-11-18T04:55:02.427Z,0.00
2022-11-18T04:56:55.385Z,0.00
2022-11-18T04:57:55.396Z,0.00
2022-11-18T04:59:59.459Z,0.00
2022-11-18T05:00:59.503Z,0.00
2022-11-18T05:03:03.492Z,0.00
2022-11-18T05:04:03.516Z,0.00
2022-11-18T05:06:07.544Z,0.00
2022-11-18T05:07:07.662Z,0.00
2022-11-18T05:09:11.599Z,0.00
2022-11-18T05:10:11.623Z,0.00
2022-11-18T05:12:15.659Z,0.00
2022-11-18T05:13:15.676Z,0.00
2022-11-18T05:15:19.743Z,0.00
2022-11-18T05:16:19.735Z,0.00
2022-11-18T05:18:23.797Z,0.00
2022-11-18T05:19:23.804Z,0.00
2022-11-18T05:21:27.828Z,0.00
2022-11-18T05:22:27.847Z,0.00
2022-11-18T05:24:31.918Z,0.00
2022-11-18T05:25:31.903Z,0.00
2022-11-18T05:27:24.888Z,0.00
2022-11-18T05:28:24.875Z,0.00
2022-11-18T05:30:28.906Z,0.00
2022-11-18T05:31:28.936Z,0.00
2022-11-18T05:33:32.966Z,0.00
2022-11-18T05:34:32.985Z,0.00
2022-11-18T05:36:37.017Z,0.00
2022-11-18T05:37:37.042Z,0.00
2022-11-18T05:39:41.083Z,0.00
2022-11-18T05:40:41.093Z,0.00
2022-11-18T05:42:47.272Z,0.00
2022-11-18T05:43:45.149Z,0.00
2022-11-18T05:45:49.187Z,0.00
2022-11-18T05:46:49.212Z,0.00
2022-11-18T05:48:53.240Z,0.00
2022-11-18T05:49:53.267Z,0.00
2022-11-18T05:51:57.335Z,0.00
2022-11-18T05:52:57.329Z,0.00
2022-11-18T05:55:01.400Z,0.00
2022-11-18T05:56:01.386Z,0.00
2022-11-18T05:58:05.424Z,0.00
2022-11-18T05:59:05.442Z,0.00
2022-11-18T06:01:09.480Z,0.00
2022-11-18T06:02:09.504Z,0.00
2022-11-18T06:04:13.537Z,0.00
2022-11-18T06:05:13.557Z,0.00
2022-11-18T06:07:06.571Z,0.00
2022-11-18T06:08:06.540Z,0.00
2022-11-18T06:10:10.565Z,0.00
2022-11-18T06:11:10.587Z,0.00
2022-11-18T06:13:14.617Z,0.00
2022-11-18T06:14:14.641Z,0.00
2022-11-18T06:16:18.680Z,0.00
2022-11-18T06:17:18.696Z,0.00
2022-11-18T06:19:22.734Z,0.00
2022-11-18T06:20:22.746Z,0.00
2022-11-18T06:22:26.784Z,0.00
2022-11-18T06:23:26.803Z,0.00
2022-11-18T06:25:30.881Z,0.00
2022-11-18T06:26:30.860Z,0.00
2022-11-18T06:28:34.898Z,0.00
2022-11-18T06:29:34.913Z,0.00
2022-11-18T06:30:34.943Z,0.00
2022-11-18T06:31:34.963Z,0.00
2022-11-18T06:32:34.995Z,0.00
2022-11-18T06:33:35.017Z,0.00
2022-11-18T06:34:41.032Z,0.00
2022-11-18T06:35:35.075Z,0.00
2022-11-18T06:36:35.099Z,0.00
2022-11-18T06:37:35.120Z,0.00
2022-11-18T06:38:35.152Z,0.00
2022-11-18T06:39:35.177Z,0.00
2022-11-18T06:40:35.218Z,0.00
2022-11-18T06:41:35.228Z,0.00
2022-11-18T06:42:35.257Z,0.00
2022-11-18T06:43:35.278Z,0.00
2022-11-18T06:44:35.342Z,0.00
2022-11-18T06:45:35.336Z,0.00
2022-11-18T06:46:35.361Z,0.00
2022-11-18T06:47:35.388Z,0.00
2022-11-18T06:48:35.415Z,0.00
2022-11-18T06:49:35.442Z,0.00
2022-11-18T06:50:35.468Z,0.00
2022-11-18T06:51:35.491Z,0.00
2022-11-18T06:52:35.520Z,0.00
2022-11-18T06:53:35.545Z,0.00
2022-11-18T06:54:35.574Z,0.00
2022-11-18T06:55:35.603Z,0.00
2022-11-18T06:56:35.625Z,0.00
2022-11-18T06:57:35.654Z,0.00
2022-11-18T06:58:35.680Z,0.00
2022-11-18T06:59:35.699Z,0.00
2022-11-18T07:00:35.791Z,0.00
2022-11-18T07:01:35.752Z,0.00
2022-11-18T07:02:35.783Z,0.00
2022-11-18T07:03:35.806Z,0.00
2022-11-18T07:04:35.837Z,0.00
2022-11-18T07:05:35.864Z,0.00
2022-11-18T07:06:35.891Z,0.00
2022-11-18T07:07:40.513Z,0.00
2022-11-18T07:08:36.021Z,0.00
2022-11-18T07:09:35.970Z,0.00
2022-11-18T07:10:35.993Z,0.00
2022-11-18T07:11:36.016Z,0.00
2022-11-18T07:12:36.057Z,0.00
2022-11-18T07:13:40.539Z,0.00
2022-11-18T07:14:36.103Z,0.00
2022-11-18T07:15:36.128Z,0.00
2022-11-18T07:16:36.150Z,0.00
2022-11-18T07:17:36.175Z,0.00
2022-11-18T07:18:36.204Z,0.00
2022-11-18T07:19:36.273Z,0.00
2022-11-18T07:20:36.261Z,0.00
2022-11-18T07:21:36.288Z,0.00
2022-11-18T07:22:36.309Z,0.00
2022-11-18T07:23:36.334Z,0.00
2022-11-18T07:24:36.362Z,0.00
2022-11-18T07:25:39.111Z,0.00
2022-11-18T07:26:36.418Z,0.00
2022-11-18T07:27:36.438Z,0.00
2022-11-18T07:28:36.488Z,0.00
2022-11-18T07:29:36.488Z,0.00
2022-11-18T07:30:36.518Z,0.00
2022-11-18T07:31:36.542Z,0.00
2022-11-18T07:32:36.570Z,0.00
2022-11-18T07:33:36.597Z,0.00
2022-11-18T07:34:36.622Z,5.63
2022-11-18T07:35:36.646Z,5.63
2022-11-18T07:36:36.684Z,5.63
2022-11-18T07:37:36.700Z,5.63
2022-11-18T07:38:36.731Z,5.63
2022-11-18T07:39:36.759Z,5.63
2022-11-18T07:40:36.781Z,5.63
2022-11-18T07:41:36.813Z,5.63
2022-11-18T07:42:36.835Z,5.63
2022-11-18T07:43:36.866Z,5.63
2022-11-18T07:44:36.892Z,5.63
2022-11-18T07:45:36.908Z,5.63
2022-11-18T07:46:36.939Z,5.63
2022-11-18T07:47:36.962Z,5.63
2022-11-18T07:48:36.994Z,5.63
2022-11-18T07:49:37.013Z,5.63
2022-11-18T07:50:37.042Z,5.63
2022-11-18T07:51:37.067Z,5.63
2022-11-18T07:52:37.095Z,5.63
2022-11-18T07:53:37.129Z,5.63
2022-11-18T07:54:37.152Z,11.25
2022-11-18T07:55:37.170Z,11.25
2022-11-18T07:56:37.199Z,11.25
2022-11-18T07:57:37.247Z,11.25
2022-11-18T07:58:37.272Z,11.25
2022-11-18T07:59:37.299Z,11.25
2022-11-18T08:00:37.306Z,11.25
2022-11-18T08:01:37.423Z,11.25
2022-11-18T08:02:37.355Z,11.25
2022-11-18T08:03:37.384Z,11.25
2022-11-18T08:04:37.462Z,11.25
2022-11-18T08:05:37.509Z,11.25
2022-11-18T08:06:37.460Z,11.25
2022-11-18T08:07:37.522Z,11.25
2022-11-18T08:08:37.515Z,11.25
2022-11-18T08:09:37.543Z,11.25
2022-11-18T08:10:37.567Z,11.25
2022-11-18T08:11:37.598Z,11.25
2022-11-18T08:12:37.617Z,11.25
2022-11-18T08:13:37.646Z,11.25
2022-11-18T08:14:37.670Z,11.25
2022-11-18T08:15:37.699Z,11.25
2022-11-18T08:16:37.736Z,11.25
2022-11-18T08:17:37.752Z,11.25
2022-11-18T08:18:37.777Z,11.25
2022-11-18T08:19:37.804Z,11.25
2022-11-18T08:20:37.825Z,11.25
2022-11-18T08:21:37.858Z,5.63
2022-11-18T08:22:37.888Z,5.63
2022-11-18T08:23:41.901Z,5.63
2022-11-18T08:24:37.937Z,5.63
2022-11-18T08:25:37.961Z,5.63
2022-11-18T08:26:37.985Z,11.25
2022-11-18T08:27:38.015Z,11.25
2022-11-18T08:28:38.133Z,11.25
2022-11-18T08:29:38.065Z,11.25
2022-11-18T08:30:38.093Z,11.25
2022-11-18T08:31:38.119Z,11.25
2022-11-18T08:32:38.144Z,11.25
2022-11-18T08:33:38.173Z,11.25
2022-11-18T08:34:38.194Z,11.25
2022-11-18T08:35:38.223Z,11.25
2022-11-18T08:36:38.248Z,11.25
2022-11-18T08:37:38.278Z,11.25
2022-11-18T08:38:38.300Z,11.25
2022-11-18T08:39:38.332Z,11.25
2022-11-18T08:40:38.357Z,11.25
2022-11-18T08:41:38.383Z,11.25
2022-11-18T08:42:38.404Z,16.88
2022-11-18T08:43:38.434Z,16.88
2022-11-18T08:44:38.457Z,11.25
2022-11-18T08:45:38.489Z,11.25
2022-11-18T08:46:38.509Z,11.25
2022-11-18T08:47:38.541Z,11.25
2022-11-18T08:48:38.618Z,11.25
2022-11-18T08:49:38.591Z,5.63
2022-11-18T08:50:38.626Z,5.63
2022-11-18T08:51:38.643Z,5.63
2022-11-18T08:52:38.678Z,5.63
2022-11-18T08:53:38.696Z,5.63
2022-11-18T08:54:38.720Z,5.63
2022-11-18T08:55:38.748Z,5.63
2022-11-18T08:56:38.771Z,5.63
2022-11-18T08:57:38.801Z,5.63
2022-11-18T08:58:38.825Z,5.63
2022-11-18T08:59:38.854Z,5.63
2022-11-18T09:00:38.879Z,5.63
2022-11-18T09:01:38.973Z,5.63
2022-11-18T09:02:38.930Z,5.63
2022-11-18T09:03:38.958Z,5.63
2022-11-18T09:04:38.983Z,5.63
2022-11-18T09:05:39.011Z,5.63
2022-11-18T09:06:39.036Z,5.63
2022-11-18T09:07:39.103Z,5.63
2022-11-18T09:08:39.087Z,0.00
2022-11-18T09:09:39.114Z,0.00
2022-11-18T09:10:39.136Z,0.00
2022-11-18T09:11:39.168Z,0.00
2022-11-18T09:12:39.192Z,0.00
2022-11-18T09:15:39.270Z,0.00
2022-11-18T09:16:39.294Z,0.00
2022-11-18T09:17:39.324Z,0.00
2022-11-18T09:18:39.347Z,0.00
2022-11-18T09:19:47.142Z,0.00
2022-11-18T09:20:39.400Z,0.00
2022-11-18T09:21:40.962Z,0.00
2022-11-18T09:22:39.453Z,5.63
2022-11-18T09:23:39.482Z,5.63
2022-11-18T09:24:39.505Z,5.63
2022-11-18T09:25:39.533Z,5.63
2022-11-18T09:26:39.565Z,5.63
2022-11-18T09:27:39.585Z,5.63
2022-11-18T09:28:39.609Z,5.63
2022-11-18T09:29:39.638Z,5.63
2022-11-18T09:30:39.661Z,5.63
2022-11-18T09:31:39.690Z,5.63
2022-11-18T09:32:39.713Z,5.63
2022-11-18T09:33:39.743Z,5.63
2022-11-18T09:34:39.767Z,5.63
2022-11-18T09:35:39.795Z,5.63
2022-11-18T09:36:39.823Z,5.63
2022-11-18T09:37:39.846Z,5.63
2022-11-18T09:38:39.871Z,5.63
2022-11-18T09:39:39.901Z,5.63
2022-11-18T09:40:39.921Z,5.63
2022-11-18T09:41:39.953Z,5.63
2022-11-18T09:42:39.974Z,5.63
2022-11-18T09:43:40.002Z,5.63
2022-11-18T09:44:40.028Z,5.63
2022-11-18T09:45:40.055Z,5.63
2022-11-18T09:46:40.078Z,5.63
2022-11-18T09:47:40.107Z,5.63
2022-11-18T09:48:40.130Z,5.63
2022-11-18T09:49:40.159Z,5.63
2022-11-18T09:50:55.484Z,5.63
2022-11-18T09:51:40.213Z,5.63
2022-11-18T09:52:40.236Z,5.63
2022-11-18T09:53:40.274Z,5.63
2022-11-18T09:54:40.288Z,5.63
2022-11-18T09:55:40.317Z,5.63
2022-11-18T09:56:40.423Z,5.63
2022-11-18T09:57:40.367Z,5.63
2022-11-18T09:58:40.391Z,5.63
2022-11-18T09:59:40.420Z,5.63
2022-11-18T10:00:40.443Z,5.63
2022-11-18T10:01:40.518Z,5.63
2022-11-18T10:02:40.495Z,5.63
2022-11-18T10:03:40.523Z,5.63
2022-11-18T10:04:40.547Z,5.63
2022-11-18T10:05:40.578Z,5.63
2022-11-18T10:06:40.600Z,5.63
2022-11-18T10:07:40.676Z,11.25
2022-11-18T10:08:40.660Z,11.25
2022-11-18T10:09:40.685Z,11.25
2022-11-18T10:10:40.706Z,11.25
2022-11-18T10:11:43.402Z,11.25
2022-11-18T10:12:40.755Z,11.25
2022-11-18T10:13:40.785Z,11.25
2022-11-18T10:14:40.809Z,11.25
2022-11-18T10:15:40.837Z,11.25
2022-11-18T10:16:40.865Z,11.25
2022-11-18T10:17:40.892Z,11.25
2022-11-18T10:19:40.942Z,11.25
2022-11-18T10:20:40.965Z,11.25
2022-11-18T10:21:40.994Z,11.25
2022-11-18T10:22:41.019Z,11.25
2022-11-18T10:23:41.048Z,16.88
2022-11-18T10:24:41.076Z,11.25
2022-11-18T10:25:41.100Z,11.25
2022-11-18T10:26:41.126Z,11.25
2022-11-18T10:27:41.152Z,11.25
2022-11-18T10:28:41.177Z,11.25
2022-11-18T10:29:41.217Z,11.25
2022-11-18T10:30:41.230Z,11.25
2022-11-18T10:31:41.260Z,11.25
2022-11-18T10:32:41.283Z,11.25
2022-11-18T10:33:41.312Z,16.88
2022-11-18T10:34:41.338Z,16.88
2022-11-18T10:35:41.366Z,11.25
2022-11-18T10:36:41.391Z,11.25
2022-11-18T10:38:08.636Z,11.25
2022-11-18T10:38:45.498Z,16.88
2022-11-18T10:39:41.468Z,16.88
2022-11-18T10:40:41.502Z,16.88
2022-11-18T10:41:41.521Z,16.88
2022-11-18T10:42:41.545Z,11.25
2022-11-18T10:43:41.574Z,11.25
2022-11-18T10:44:41.599Z,11.25
2022-11-18T10:45:41.627Z,11.25
2022-11-18T10:46:41.650Z,11.25
2022-11-18T10:47:41.680Z,11.25
2022-11-18T10:48:41.705Z,11.25
2022-11-18T10:49:41.741Z,11.25
2022-11-18T10:50:41.758Z,11.25
2022-11-18T10:51:41.787Z,11.25
2022-11-18T10:52:41.810Z,11.25
2022-11-18T10:53:41.843Z,11.25
2022-11-18T10:54:41.868Z,11.25
2022-11-18T10:55:41.895Z,11.25
2022-11-18T10:56:41.917Z,11.25
2022-11-18T10:57:41.943Z,11.25
2022-11-18T10:58:41.967Z,11.25
2022-11-18T10:59:41.999Z,11.25
2022-11-18T11:00:42.022Z,11.25
2022-11-18T11:01:42.164Z,11.25
2022-11-18T11:02:42.074Z,11.25
2022-11-18T11:03:42.104Z,11.25
2022-11-18T11:04:42.127Z,11.25
2022-11-18T11:05:42.157Z,11.25
2022-11-18T11:06:42.180Z,11.25
2022-11-18T11:07:42.268Z,11.25
2022-11-18T11:08:42.236Z,11.25
2022-11-18T11:09:42.276Z,11.25
2022-11-18T11:10:42.285Z,11.25
2022-11-18T11:11:42.337Z,11.25
2022-11-18T11:12:42.344Z,11.25
2022-11-18T11:13:42.367Z,11.25
2022-11-18T11:14:42.391Z,5.63
2022-11-18T11:15:42.417Z,11.25
2022-11-18T11:16:42.444Z,11.25
2022-11-18T11:17:42.575Z,11.25
2022-11-18T11:18:42.499Z,11.25
2022-11-18T11:19:42.521Z,11.25
2022-11-18T11:20:42.542Z,11.25
2022-11-18T11:21:42.568Z,11.25
2022-11-18T11:22:42.609Z,11.25
2022-11-18T11:23:42.622Z,11.25
2022-11-18T11:24:42.649Z,11.25
2022-11-18T11:28:42.763Z,11.25
2022-11-18T11:29:42.779Z,16.88
2022-11-18T11:30:45.257Z,16.88
2022-11-18T11:31:42.831Z,11.25
2022-11-18T11:32:42.858Z,16.88
2022-11-18T11:33:42.883Z,16.88
2022-11-18T11:34:42.917Z,16.88
2022-11-18T11:35:42.939Z,16.88
2022-11-18T11:36:42.963Z,11.25
2022-11-18T11:37:42.988Z,11.25
2022-11-18T11:38:43.026Z,11.25
2022-11-18T11:39:43.042Z,11.25
2022-11-18T11:40:43.065Z,11.25
2022-11-18T11:41:43.093Z,11.25
2022-11-18T11:42:43.119Z,11.25
2022-11-18T11:43:43.145Z,11.25
2022-11-18T11:44:43.174Z,11.25
2022-11-18T11:45:43.202Z,11.25
2022-11-18T11:46:43.225Z,11.25
2022-11-18T11:47:43.251Z,11.25
2022-11-18T11:48:43.282Z,11.25
2022-11-18T11:49:43.305Z,11.25
2022-11-18T11:50:43.333Z,11.25
2022-11-18T11:51:43.359Z,11.25
2022-11-18T11:52:43.386Z,11.25
2022-11-18T11:53:43.411Z,11.25
2022-11-18T11:54:43.435Z,11.25
2022-11-18T11:55:43.474Z,11.25
2022-11-18T11:56:43.489Z,11.25
2022-11-18T11:57:43.518Z,11.25
2022-11-18T11:58:43.545Z,11.25
2022-11-18T11:59:43.569Z,16.88
2022-11-18T12:00:43.595Z,16.88
2022-11-18T12:01:43.627Z,16.88
2022-11-18T12:02:43.679Z,16.88
2022-11-18T12:03:48.648Z,22.50
2022-11-18T12:04:43.711Z,22.50
2022-11-18T12:05:43.728Z,22.50
2022-11-18T12:06:43.755Z,28.13
2022-11-18T12:07:43.826Z,28.13
2022-11-18T12:08:43.806Z,33.75
2022-11-18T12:09:43.838Z,33.75
2022-11-18T12:10:43.865Z,33.75
2022-11-18T12:11:43.886Z,33.75
2022-11-18T12:12:43.911Z,39.38
2022-11-18T12:13:43.940Z,50.63
2022-11-18T12:14:43.968Z,56.25
2022-11-18T12:15:43.991Z,50.63
2022-11-18T12:16:44.019Z,50.63
2022-11-18T12:17:44.044Z,56.25
2022-11-18T12:18:44.072Z,73.13
2022-11-18T12:19:44.096Z,106.88
2022-11-18T12:20:44.125Z,101.25
2022-11-18T12:21:44.151Z,106.88
2022-11-18T12:22:44.211Z,118.13
2022-11-18T12:23:44.203Z,106.88
2022-11-18T12:24:44.230Z,95.63
2022-11-18T12:25:44.259Z,112.50
2022-11-18T12:26:44.284Z,106.88
2022-11-18T12:27:44.310Z,84.38
2022-11-18T12:28:44.338Z,95.63
2022-11-18T12:29:44.365Z,106.88
2022-11-18T12:30:44.400Z,90.00
2022-11-18T12:31:44.416Z,106.88
2022-11-18T12:32:44.466Z,123.75
2022-11-18T12:33:44.469Z,123.75
2022-11-18T12:34:44.513Z,112.50
2022-11-18T12:35:44.524Z,112.50
2022-11-18T12:36:44.552Z,123.75
2022-11-18T12:37:44.578Z,303.75
2022-11-18T12:38:44.605Z,196.88
2022-11-18T12:39:44.630Z,630.00
2022-11-18T12:40:50.646Z,337.50
2022-11-18T12:41:44.685Z,590.63
2022-11-18T12:42:44.711Z,264.38
2022-11-18T12:43:44.754Z,675.00
2022-11-18T12:44:44.767Z,1749.38
2022-11-18T12:45:44.802Z,1726.88
2022-11-18T12:46:45.868Z,1755.00
2022-11-18T12:47:44.846Z,1625.63
2022-11-18T12:48:44.989Z,1029.38
2022-11-18T12:49:44.903Z,433.13
2022-11-18T12:50:44.933Z,360.00
2022-11-18T12:51:44.974Z,326.25
2022-11-18T12:52:44.989Z,624.38
2022-11-18T12:53:45.016Z,1051.88
2022-11-18T12:54:45.045Z,1001.25
2022-11-18T12:55:45.077Z,686.25
2022-11-18T12:56:45.105Z,444.38
2022-11-18T12:57:45.157Z,303.75
2022-11-18T12:58:45.168Z,585.00
2022-11-18T12:59:45.193Z,444.38
2022-11-18T13:00:45.326Z,663.75
2022-11-18T13:01:45.254Z,1018.13
2022-11-18T13:02:45.282Z,1096.88
2022-11-18T13:03:45.312Z,888.75
2022-11-18T13:04:49.672Z,511.88
2022-11-18T13:05:45.371Z,438.75
2022-11-18T13:06:45.404Z,196.88
2022-11-18T13:07:45.463Z,191.25
2022-11-18T13:08:45.465Z,118.13
2022-11-18T13:09:45.495Z,95.63
2022-11-18T13:10:45.529Z,73.13
2022-11-18T13:11:45.626Z,73.13
2022-11-18T13:12:45.587Z,67.50
2022-11-18T13:13:45.619Z,73.13
2022-11-18T13:14:45.649Z,73.13
2022-11-18T13:15:45.676Z,73.13
2022-11-18T13:16:45.712Z,73.13
2022-11-18T13:17:45.744Z,67.50
2022-11-18T13:18:45.770Z,61.88
2022-11-18T13:19:45.799Z,61.88
2022-11-18T13:20:45.835Z,61.88
2022-11-18T13:21:45.862Z,61.88
2022-11-18T13:22:45.892Z,56.25
2022-11-18T13:23:45.920Z,56.25
2022-11-18T13:24:45.951Z,50.63
2022-11-18T13:25:45.983Z,56.25
2022-11-18T13:26:46.013Z,56.25
2022-11-18T13:27:46.039Z,90.00
2022-11-18T13:28:46.070Z,95.63
2022-11-18T13:29:51.117Z,73.13
2022-11-18T13:30:46.130Z,101.25
2022-11-18T13:31:46.158Z,84.38
2022-11-18T13:32:46.192Z,90.00
2022-11-18T13:33:46.217Z,78.75
2022-11-18T13:34:46.246Z,73.13
2022-11-18T13:35:46.274Z,73.13
2022-11-18T13:36:46.304Z,101.25
2022-11-18T13:37:46.332Z,84.38
2022-11-18T13:38:46.363Z,101.25
2022-11-18T13:39:46.389Z,106.88
2022-11-18T13:40:46.421Z,90.00
2022-11-18T13:41:46.451Z,135.00
2022-11-18T13:42:46.476Z,180.00
2022-11-18T13:43:51.461Z,151.88
2022-11-18T13:44:46.533Z,112.50
2022-11-18T13:45:46.562Z,90.00
2022-11-18T13:46:46.591Z,95.63
2022-11-18T13:47:46.618Z,112.50
2022-11-18T13:48:46.651Z,135.00
2022-11-18T13:49:50.372Z,157.50
2022-11-18T13:50:46.710Z,208.13
2022-11-18T13:51:46.734Z,410.63
2022-11-18T13:52:46.760Z,410.63
2022-11-18T13:53:46.790Z,241.88
2022-11-18T13:54:46.819Z,225.00
2022-11-18T13:55:46.844Z,292.50
2022-11-18T13:56:46.873Z,326.25
2022-11-18T13:57:46.904Z,337.50
2022-11-18T13:59:46.960Z,433.13
2022-11-18T14:00:47.017Z,461.25
2022-11-18T14:01:47.031Z,489.38
2022-11-18T14:02:47.046Z,551.25
2022-11-18T14:03:47.074Z,511.88
2022-11-18T14:04:47.105Z,438.75
2022-11-18T14:05:47.134Z,416.25
2022-11-18T14:06:47.184Z,416.25
2022-11-18T14:07:47.258Z,348.75
2022-11-18T14:08:47.225Z,348.75
2022-11-18T14:09:47.291Z,393.75
2022-11-18T14:10:47.282Z,354.38
2022-11-18T14:11:47.315Z,343.13
2022-11-18T14:12:47.341Z,343.13
2022-11-18T14:13:47.374Z,354.38
2022-11-18T14:14:47.401Z,337.50
2022-11-18T14:15:47.430Z,303.75
2022-11-18T14:16:47.463Z,309.38
2022-11-18T14:17:47.489Z,275.63
2022-11-18T14:18:47.522Z,230.63
2022-11-18T14:19:47.691Z,213.75
2022-11-18T14:20:47.584Z,230.63
2022-11-18T14:21:47.619Z,213.75
2022-11-18T14:22:47.643Z,157.50
2022-11-18T14:23:47.675Z,140.63
2022-11-18T14:24:47.713Z,118.13
2022-11-18T14:25:47.734Z,140.63
2022-11-18T14:26:47.767Z,146.25
2022-11-18T14:27:47.796Z,106.88
2022-11-18T14:28:47.831Z,67.50
2022-11-18T14:29:47.858Z,50.63
2022-11-18T14:30:47.890Z,45.00
2022-11-18T14:31:47.919Z,33.75
2022-11-18T14:32:47.950Z,33.75
2022-11-18T14:33:47.981Z,22.50
2022-11-18T14:34:48.013Z,16.88
2022-11-18T14:35:48.042Z,16.88
2022-11-18T14:36:48.073Z,16.88
2022-11-18T14:37:48.102Z,11.25
2022-11-18T14:39:04.463Z,11.25
2022-11-18T14:39:48.163Z,11.25
2022-11-18T14:40:48.196Z,11.25